createdAt,value
2019-03-13T00:00:30.481Z,0.40
2019-03-13T00:02:58.888Z,0.40
2019-03-13T00:05:27.282Z,0.40
2019-03-13T00:07:55.661Z,0.40
2019-03-13T00:10:24.066Z,0.40
2019-03-13T00:12:52.468Z,0.30
2019-03-13T00:15:20.870Z,0.30
2019-03-13T00:17:49.273Z,0.20
2019-03-13T00:20:17.646Z,0.20
2019-03-13T00:22:46.021Z,0.20
2019-03-13T00:25:14.400Z,0.20
2019-03-13T00:27:42.751Z,0.20
2019-03-13T00:30:12.268Z,0.20
2019-03-13T00:32:40.688Z,0.30
2019-03-13T00:35:10.288Z,0.20
2019-03-13T00:37:38.595Z,0.20
2019-03-13T00:40:10.207Z,0.20
2019-03-13T00:42:38.563Z,0.20
2019-03-13T00:45:09.575Z,0.10
2019-03-13T00:47:37.922Z,0.10
2019-03-13T00:50:09.528Z,0.10
2019-03-13T00:52:37.904Z,0.00
2019-03-13T00:55:07.329Z,0.00
2019-03-13T00:57:35.685Z,0.00
2019-03-13T01:00:42.865Z,-0.10
2019-03-13T01:03:13.864Z,-0.10
2019-03-13T01:05:43.888Z,-0.10
2019-03-13T01:08:12.408Z,-0.10
2019-03-13T01:10:40.795Z,-0.10
2019-03-13T01:13:09.156Z,-0.10
2019-03-13T01:15:37.571Z,-0.20
2019-03-13T01:18:06.096Z,-0.20
2019-03-13T01:20:34.420Z,-0.30
2019-03-13T01:23:03.122Z,-0.30
2019-03-13T01:25:31.509Z,-0.30
2019-03-13T01:27:59.891Z,-0.40
2019-03-13T01:30:29.961Z,-0.40
2019-03-13T01:32:59.972Z,-0.40
2019-03-13T01:35:30.046Z,-0.40
2019-03-13T01:37:58.428Z,-0.30
2019-03-13T01:40:26.782Z,-0.30
2019-03-13T01:42:55.176Z,-0.20
2019-03-13T01:45:23.565Z,-0.20
2019-03-13T01:47:51.955Z,-0.10
2019-03-13T01:50:20.364Z,0.00
2019-03-13T01:52:48.909Z,-0.10
2019-03-13T01:55:17.304Z,0.00
2019-03-13T01:57:45.693Z,0.10
2019-03-13T02:00:15.915Z,0.10
2019-03-13T02:02:44.300Z,0.10
2019-03-13T02:05:12.675Z,0.10
2019-03-13T02:07:41.064Z,0.10
2019-03-13T02:10:11.155Z,0.10
2019-03-13T02:12:39.467Z,0.00
2019-03-13T02:15:11.054Z,0.00
2019-03-13T02:17:39.411Z,0.00
2019-03-13T02:20:10.126Z,0.00
2019-03-13T02:22:38.529Z,0.00
2019-03-13T02:25:09.127Z,0.00
2019-03-13T02:27:37.504Z,0.00
2019-03-13T02:30:13.371Z,-0.10
2019-03-13T02:32:41.743Z,-0.10
2019-03-13T02:35:10.098Z,-0.10
2019-03-13T02:37:38.813Z,-0.20
2019-03-13T02:40:10.652Z,-0.20
2019-03-13T02:42:39.121Z,-0.20
2019-03-13T02:45:12.861Z,-0.30
2019-03-13T02:47:41.412Z,-0.30
2019-03-13T02:50:15.378Z,-0.20
2019-03-13T02:52:44.955Z,-0.20
2019-03-13T02:55:13.655Z,-0.10
2019-03-13T02:57:42.033Z,-0.10
2019-03-13T03:00:18.365Z,-0.10
2019-03-13T03:02:48.458Z,0.00
2019-03-13T03:05:16.848Z,0.10
2019-03-13T03:07:45.239Z,0.10
2019-03-13T03:10:13.764Z,0.10
2019-03-13T03:12:42.199Z,0.30
2019-03-13T03:15:16.036Z,0.40
2019-03-13T03:17:44.430Z,0.40
2019-03-13T03:20:15.190Z,0.40
2019-03-13T03:22:43.582Z,0.50
2019-03-13T03:25:14.174Z,0.50
2019-03-13T03:27:42.805Z,0.50
2019-03-13T03:30:20.250Z,0.50
2019-03-13T03:32:48.906Z,0.50
2019-03-13T03:35:17.462Z,0.50
2019-03-13T03:37:45.805Z,0.60
2019-03-13T03:40:22.385Z,0.60
2019-03-13T03:42:48.557Z,0.60
2019-03-13T03:45:16.946Z,0.60
2019-03-13T03:47:45.320Z,0.60
2019-03-13T03:50:16.191Z,0.60
2019-03-13T03:52:44.595Z,0.60
2019-03-13T03:55:14.126Z,0.50
2019-03-13T03:57:42.487Z,0.50
2019-03-13T04:00:15.873Z,0.50
2019-03-13T04:02:43.534Z,0.50
2019-03-13T04:05:11.921Z,0.50
2019-03-13T04:07:40.476Z,0.50
2019-03-13T04:10:15.790Z,0.50
2019-03-13T04:12:44.198Z,0.50
2019-03-13T04:15:13.802Z,0.50
2019-03-13T04:17:42.151Z,0.50
2019-03-13T04:20:12.759Z,0.50
2019-03-13T04:22:41.089Z,0.60
2019-03-13T04:25:27.288Z,0.60
2019-03-13T04:27:55.833Z,0.60
2019-03-13T04:30:24.279Z,0.60
2019-03-13T04:32:52.861Z,0.60
2019-03-13T04:35:21.210Z,0.60
2019-03-13T04:37:49.593Z,0.60
2019-03-13T04:40:18.120Z,0.60
2019-03-13T04:42:46.485Z,0.50
2019-03-13T04:45:14.834Z,0.60
2019-03-13T04:47:43.190Z,0.50
2019-03-13T04:50:13.328Z,0.60
2019-03-13T04:52:41.706Z,0.70
2019-03-13T04:55:14.407Z,0.60
2019-03-13T04:57:42.770Z,0.60
2019-03-13T05:00:13.919Z,0.60
2019-03-13T05:02:42.311Z,0.60
2019-03-13T05:05:29.193Z,0.70
2019-03-13T05:07:57.616Z,0.70
2019-03-13T05:10:25.962Z,0.70
2019-03-13T05:12:54.379Z,0.80
2019-03-13T05:15:22.862Z,0.90
2019-03-13T05:17:51.247Z,1.00
2019-03-13T05:20:19.608Z,1.00
2019-03-13T05:22:49.027Z,1.10
2019-03-13T05:25:19.168Z,1.10
2019-03-13T05:27:47.476Z,1.20
2019-03-13T05:30:15.847Z,1.30
2019-03-13T05:32:45.294Z,1.40
2019-03-13T05:35:13.678Z,1.40
2019-03-13T05:37:42.464Z,1.50
2019-03-13T05:40:11.961Z,1.50
2019-03-13T05:42:40.313Z,1.70
2019-03-13T05:45:09.466Z,1.70
2019-03-13T05:47:37.871Z,1.70
2019-03-13T05:50:09.070Z,1.80
2019-03-13T05:52:37.860Z,2.00
2019-03-13T05:55:06.712Z,2.00
2019-03-13T05:57:35.102Z,2.10
2019-03-13T06:00:06.051Z,2.20
2019-03-13T06:02:34.712Z,2.40
2019-03-13T06:05:03.311Z,2.40
2019-03-13T06:07:31.820Z,2.40
2019-03-13T06:10:00.494Z,2.40
2019-03-13T06:12:29.818Z,2.40
2019-03-13T06:14:58.509Z,2.40
2019-03-13T06:17:26.871Z,2.40
2019-03-13T06:19:55.330Z,2.40
2019-03-13T06:22:23.735Z,2.30
2019-03-13T06:24:52.113Z,2.40
2019-03-13T06:27:20.752Z,2.30
2019-03-13T06:29:49.154Z,2.30
2019-03-13T06:32:17.534Z,2.30
2019-03-13T06:34:45.912Z,2.40
2019-03-13T06:37:14.334Z,2.40
2019-03-13T06:39:42.717Z,2.50
2019-03-13T06:42:11.070Z,2.60
2019-03-13T06:44:39.418Z,2.60
2019-03-13T06:47:07.756Z,2.70
2019-03-13T06:49:36.198Z,2.80
2019-03-13T06:52:04.579Z,3.10
2019-03-13T06:54:32.949Z,3.20
2019-03-13T06:57:01.309Z,3.20
2019-03-13T06:59:31.330Z,3.20
2019-03-13T07:02:07.156Z,3.20
2019-03-13T07:04:53.610Z,3.20
2019-03-13T07:07:39.711Z,3.20
2019-03-13T07:10:10.776Z,3.20
2019-03-13T07:12:40.809Z,3.30
2019-03-13T07:15:13.707Z,3.20
2019-03-13T07:17:48.327Z,3.20
2019-03-13T07:20:18.354Z,3.20
2019-03-13T07:23:00.420Z,3.10
2019-03-13T07:25:36.108Z,3.20
2019-03-13T07:28:19.853Z,3.30
2019-03-13T07:30:49.197Z,3.40
2019-03-13T07:33:27.906Z,3.50
2019-03-13T07:36:14.196Z,3.70
2019-03-13T07:38:44.254Z,4.00
2019-03-13T07:41:26.080Z,4.10
2019-03-13T07:43:58.832Z,4.30
2019-03-13T07:46:28.890Z,4.50
2019-03-13T07:48:58.888Z,4.50
2019-03-13T07:51:34.527Z,4.50
2019-03-13T07:54:40.218Z,4.50
2019-03-13T07:57:26.815Z,4.40
2019-03-13T08:00:02.766Z,4.50
2019-03-13T08:02:35.520Z,4.50
2019-03-13T08:05:22.354Z,4.60
2019-03-13T08:07:58.261Z,4.80
2019-03-13T08:10:28.302Z,5.00
2019-03-13T08:13:12.999Z,5.20
2019-03-13T08:15:43.050Z,5.10
2019-03-13T08:18:29.092Z,5.10
2019-03-13T08:20:59.107Z,5.10
2019-03-13T08:23:32.100Z,5.10
2019-03-13T08:26:20.164Z,5.10
2019-03-13T08:28:51.734Z,5.00
2019-03-13T08:31:24.671Z,4.80
2019-03-13T08:33:55.001Z,4.50
2019-03-13T08:36:33.710Z,4.50
2019-03-13T08:39:04.357Z,4.40
2019-03-13T08:41:40.325Z,4.40
2019-03-13T08:44:19.197Z,4.40
2019-03-13T08:47:06.793Z,4.50
2019-03-13T08:52:35.392Z,4.50
2019-03-13T08:55:11.556Z,4.60
2019-03-13T08:57:50.624Z,4.50
2019-03-13T09:00:29.707Z,4.50
2019-03-13T09:03:02.412Z,4.50
2019-03-13T09:05:48.875Z,4.50
2019-03-13T09:08:30.625Z,4.50
2019-03-13T09:11:06.551Z,4.50
2019-03-13T09:13:42.333Z,4.60
2019-03-13T09:16:21.051Z,4.60
2019-03-13T09:18:59.748Z,4.70
2019-03-13T09:21:33.591Z,4.90
2019-03-13T09:24:12.631Z,5.00
2019-03-13T09:26:57.587Z,5.00
2019-03-13T09:29:36.330Z,5.00
2019-03-13T09:32:24.516Z,4.90
2019-03-13T09:34:57.208Z,4.80
2019-03-13T09:37:30.029Z,4.80
2019-03-13T09:40:05.683Z,4.90
2019-03-13T09:42:53.806Z,4.90
2019-03-13T09:45:26.355Z,4.90
2019-03-13T09:47:59.172Z,4.80
2019-03-13T09:50:29.152Z,4.90
2019-03-13T09:53:17.040Z,4.90
2019-03-13T09:55:49.646Z,5.00
2019-03-13T09:58:22.590Z,5.10
2019-03-13T10:00:52.612Z,5.10
2019-03-13T10:03:25.506Z,5.20
2019-03-13T10:05:55.554Z,5.30
2019-03-13T10:08:28.599Z,5.40
2019-03-13T10:10:58.544Z,5.50
2019-03-13T10:13:34.620Z,5.70
2019-03-13T10:16:07.478Z,5.90
2019-03-13T10:18:40.297Z,5.90
2019-03-13T10:21:10.315Z,6.00
2019-03-13T10:23:56.918Z,6.00
2019-03-13T10:26:44.995Z,6.10
2019-03-13T10:29:15.027Z,6.20
2019-03-13T10:31:46.931Z,6.20
2019-03-13T10:34:33.341Z,6.20
2019-03-13T10:37:03.379Z,6.30
2019-03-13T10:39:33.409Z,6.40
2019-03-13T10:42:03.459Z,6.30
2019-03-13T10:44:42.378Z,6.40
2019-03-13T10:47:12.400Z,6.30
2019-03-13T10:49:42.435Z,6.30
2019-03-13T10:52:17.805Z,6.20
2019-03-13T10:54:53.528Z,6.30
2019-03-13T10:57:35.548Z,6.30
2019-03-13T11:00:17.596Z,6.30
2019-03-13T11:02:59.307Z,6.30
2019-03-13T11:05:45.279Z,6.40
2019-03-13T11:08:23.930Z,6.40
2019-03-13T11:10:56.557Z,6.40
2019-03-13T11:13:42.798Z,6.50
2019-03-13T11:16:28.924Z,6.50
2019-03-13T11:19:07.469Z,6.60
2019-03-13T11:21:53.897Z,6.70
2019-03-13T11:24:23.888Z,6.90
2019-03-13T11:26:53.899Z,7.10
2019-03-13T11:29:29.778Z,7.20
2019-03-13T11:32:14.657Z,7.40
2019-03-13T11:34:44.704Z,7.50
2019-03-13T11:37:26.491Z,7.50
2019-03-13T11:40:08.719Z,7.30
2019-03-13T11:42:50.702Z,7.20
2019-03-13T11:45:37.191Z,7.30
2019-03-13T11:48:12.896Z,7.30
2019-03-13T11:50:42.934Z,7.30
2019-03-13T11:53:19.010Z,7.20
2019-03-13T11:55:55.155Z,7.10
2019-03-13T11:58:28.077Z,7.00
2019-03-13T12:01:04.213Z,6.90
2019-03-13T12:03:45.974Z,6.90
2019-03-13T12:06:34.419Z,6.90
2019-03-13T12:09:21.673Z,6.90
2019-03-13T12:12:03.925Z,6.80
2019-03-13T12:14:48.754Z,6.80
2019-03-13T12:17:27.811Z,6.80
2019-03-13T12:20:00.482Z,6.80
2019-03-13T12:22:42.256Z,6.90
2019-03-13T12:25:16.326Z,6.70
2019-03-13T12:27:46.365Z,6.70
2019-03-13T12:30:32.275Z,6.70
2019-03-13T12:33:02.335Z,6.70
2019-03-13T12:35:35.504Z,6.60
2019-03-13T12:38:05.457Z,6.60
2019-03-13T12:40:47.483Z,6.60
2019-03-13T12:43:35.650Z,6.60
2019-03-13T12:46:17.848Z,6.50
2019-03-13T12:48:47.900Z,6.50
2019-03-13T12:51:20.516Z,6.50
2019-03-13T12:54:02.600Z,6.50
2019-03-13T12:56:41.658Z,6.50
2019-03-13T12:59:23.614Z,6.40
2019-03-13T13:01:53.600Z,6.50
2019-03-13T13:04:35.338Z,6.50
2019-03-13T13:07:05.259Z,6.50
2019-03-13T13:09:51.655Z,6.50
2019-03-13T13:12:24.527Z,6.50
2019-03-13T13:14:57.402Z,6.50
2019-03-13T13:17:42.480Z,6.50
2019-03-13T13:20:13.605Z,6.40
2019-03-13T13:22:41.959Z,6.40
2019-03-13T13:25:10.714Z,6.40
2019-03-13T13:27:39.149Z,6.40
2019-03-13T13:30:13.989Z,6.30
2019-03-13T13:32:42.427Z,6.30
2019-03-13T13:35:10.788Z,6.40
2019-03-13T13:37:39.134Z,6.40
2019-03-13T13:40:12.847Z,6.40
2019-03-13T13:42:41.206Z,6.40
2019-03-13T13:45:33.129Z,6.40
2019-03-13T13:48:00.536Z,6.30
2019-03-13T13:50:28.819Z,6.30
2019-03-13T13:52:57.331Z,6.30
2019-03-13T13:55:45.091Z,6.30
2019-03-13T13:58:13.411Z,6.30
2019-03-13T14:00:41.799Z,6.20
2019-03-13T14:03:10.180Z,6.20
2019-03-13T14:05:40.955Z,6.20
2019-03-13T14:08:08.570Z,6.20
2019-03-13T14:10:36.927Z,6.30
2019-03-13T14:13:05.279Z,6.30
2019-03-13T14:15:33.662Z,6.30
2019-03-13T14:18:02.047Z,6.20
2019-03-13T14:20:30.471Z,6.20
2019-03-13T14:22:58.853Z,6.20
2019-03-13T14:25:27.210Z,6.10
2019-03-13T14:27:55.725Z,6.10
2019-03-13T14:30:24.311Z,6.10
2019-03-13T14:32:52.678Z,6.10
2019-03-13T14:35:21.067Z,6.20
2019-03-13T14:37:49.889Z,6.10
2019-03-13T14:40:19.571Z,6.10
2019-03-13T14:42:47.919Z,6.20
2019-03-13T14:45:17.915Z,6.30
2019-03-13T14:47:47.132Z,6.50
2019-03-13T14:50:18.231Z,6.60
2019-03-13T14:52:46.592Z,6.50
2019-03-13T14:55:16.497Z,6.40
2019-03-13T14:57:45.197Z,6.30
2019-03-13T15:00:18.481Z,6.30
2019-03-13T15:02:46.860Z,6.40
2019-03-13T15:05:15.634Z,6.20
2019-03-13T15:07:43.972Z,6.10
2019-03-13T15:10:17.588Z,6.00
2019-03-13T15:12:46.007Z,6.00
2019-03-13T15:15:16.791Z,6.00
2019-03-13T15:17:45.179Z,6.00
2019-03-13T15:20:19.516Z,6.00
2019-03-13T15:22:47.880Z,6.00
2019-03-13T15:25:16.284Z,5.90
2019-03-13T15:27:45.182Z,5.90
2019-03-13T15:30:19.395Z,5.90
2019-03-13T15:32:47.780Z,5.90
2019-03-13T15:35:16.189Z,5.90
2019-03-13T15:37:44.549Z,5.80
2019-03-13T15:40:17.440Z,5.80
2019-03-13T15:42:46.205Z,5.80
2019-03-13T15:45:32.565Z,5.80
2019-03-13T15:48:00.980Z,5.70
2019-03-13T15:50:29.368Z,5.60
2019-03-13T15:52:57.722Z,5.50
2019-03-13T15:55:26.104Z,5.50
2019-03-13T15:57:54.496Z,5.50
2019-03-13T16:00:27.045Z,5.40
2019-03-13T16:02:56.082Z,5.30
2019-03-13T16:05:24.653Z,5.20
2019-03-13T16:07:53.027Z,5.10
2019-03-13T16:10:21.659Z,5.10
2019-03-13T16:12:50.881Z,5.20
2019-03-13T16:15:29.234Z,5.20
2019-03-13T16:17:57.535Z,5.20
2019-03-13T16:20:25.844Z,5.20
2019-03-13T16:22:55.896Z,5.10
2019-03-13T16:25:24.296Z,5.10
2019-03-13T16:27:52.668Z,5.00
2019-03-13T16:30:23.748Z,5.00
2019-03-13T16:32:52.094Z,4.90
2019-03-13T16:35:20.412Z,5.00
2019-03-13T16:37:48.821Z,4.90
2019-03-13T16:40:19.740Z,4.90
2019-03-13T16:42:48.039Z,4.90
2019-03-13T16:45:18.507Z,4.90
2019-03-13T16:47:46.868Z,4.90
2019-03-13T16:50:18.144Z,4.80
2019-03-13T16:52:48.360Z,4.80
2019-03-13T16:55:18.988Z,4.80
2019-03-13T16:57:47.339Z,4.80
2019-03-13T17:00:21.545Z,4.80
2019-03-13T17:02:49.902Z,4.80
2019-03-13T17:05:18.619Z,4.80
2019-03-13T17:07:49.612Z,4.80
2019-03-13T17:10:19.502Z,4.80
2019-03-13T17:12:47.871Z,4.80
2019-03-13T17:15:21.713Z,4.80
2019-03-13T17:17:50.071Z,4.90
2019-03-13T17:20:20.960Z,5.00
2019-03-13T17:22:49.366Z,5.00
2019-03-13T17:25:19.800Z,5.20
2019-03-13T17:27:48.825Z,5.20
2019-03-13T17:30:28.614Z,5.20
2019-03-13T17:32:56.894Z,5.20
2019-03-13T17:35:25.287Z,5.20
2019-03-13T17:37:53.678Z,5.20
2019-03-13T17:40:27.377Z,5.10
2019-03-13T17:42:57.392Z,5.10
2019-03-13T17:45:25.779Z,5.10
2019-03-13T17:47:54.328Z,5.10
2019-03-13T17:50:23.811Z,5.00
2019-03-13T17:52:52.198Z,5.00
2019-03-13T17:55:23.282Z,4.90
2019-03-13T17:57:51.770Z,4.90
2019-03-13T18:00:23.637Z,4.80
2019-03-13T18:02:52.422Z,4.80
2019-03-13T18:05:20.972Z,4.70
2019-03-13T18:07:49.624Z,4.70
2019-03-13T18:10:21.853Z,4.70
2019-03-13T18:12:50.840Z,4.80
2019-03-13T18:15:19.542Z,4.80
2019-03-13T18:17:47.984Z,4.80
2019-03-13T18:20:18.697Z,4.80
2019-03-13T18:22:47.440Z,4.80
2019-03-13T18:25:18.421Z,4.80
2019-03-13T18:27:47.577Z,4.80
2019-03-13T18:30:29.945Z,4.80
2019-03-13T18:32:58.779Z,4.80
2019-03-13T18:35:27.403Z,4.80
2019-03-13T18:37:55.808Z,4.80
2019-03-13T18:40:24.913Z,4.80
2019-03-13T18:42:53.363Z,4.80
2019-03-13T18:45:29.364Z,4.80
2019-03-13T18:47:58.631Z,4.70
2019-03-13T18:50:27.100Z,4.70
2019-03-13T18:52:55.611Z,4.70
2019-03-13T18:55:29.448Z,4.70
2019-03-13T18:57:57.960Z,4.70
2019-03-13T19:00:31.635Z,4.70
2019-03-13T19:03:00.124Z,4.60
2019-03-13T19:05:33.676Z,4.60
2019-03-13T19:08:01.459Z,4.50
2019-03-13T19:10:33.537Z,4.50
2019-03-13T19:13:02.019Z,4.50
2019-03-13T19:15:30.435Z,4.40
2019-03-13T19:18:00.744Z,4.40
2019-03-13T19:20:29.917Z,4.40
2019-03-13T19:22:58.444Z,4.30
2019-03-13T19:25:26.872Z,4.20
2019-03-13T19:27:55.491Z,4.20
2019-03-13T19:30:26.680Z,4.20
2019-03-13T19:32:55.243Z,4.20
2019-03-13T19:35:23.638Z,4.10
2019-03-13T19:37:52.282Z,4.10
2019-03-13T19:40:21.896Z,4.10
2019-03-13T19:42:50.378Z,4.00
2019-03-13T19:45:34.418Z,4.00
2019-03-13T19:48:02.890Z,4.00
2019-03-13T19:50:31.270Z,3.90
2019-03-13T19:52:59.698Z,3.90
2019-03-13T19:55:28.109Z,3.90
2019-03-13T19:57:56.767Z,3.80
2019-03-13T20:00:26.124Z,3.90
2019-03-13T20:03:06.095Z,3.80
2019-03-13T20:05:44.782Z,3.80
2019-03-13T20:08:04.690Z,3.70
2019-03-13T20:10:33.111Z,3.70
2019-03-13T20:13:01.641Z,3.70
2019-03-13T20:15:31.877Z,3.60
2019-03-13T20:18:00.335Z,3.70
2019-03-13T20:20:28.810Z,3.70
2019-03-13T20:23:18.318Z,3.70
2019-03-13T20:25:46.831Z,3.60
2019-03-13T20:28:15.164Z,3.60
2019-03-13T20:30:43.712Z,3.60
2019-03-13T20:33:12.095Z,3.70
2019-03-13T20:35:40.479Z,3.70
2019-03-13T20:38:08.875Z,3.70
2019-03-13T20:40:37.343Z,3.60
2019-03-13T20:43:05.724Z,3.70
2019-03-13T20:45:34.092Z,3.60
2019-03-13T20:48:02.497Z,3.60
2019-03-13T20:50:37.246Z,3.60
2019-03-13T20:53:00.909Z,3.50
2019-03-13T20:55:29.326Z,3.50
2019-03-13T20:57:57.688Z,3.40
2019-03-13T21:00:26.821Z,3.50
2019-03-13T21:02:56.179Z,3.50
2019-03-13T21:05:24.877Z,3.40
2019-03-13T21:07:54.087Z,3.40
2019-03-13T21:10:24.286Z,3.40
2019-03-13T21:12:52.642Z,3.40
2019-03-13T21:15:26.409Z,3.30
2019-03-13T21:17:55.399Z,3.30
2019-03-13T21:20:23.833Z,3.30
2019-03-13T21:22:52.208Z,3.30
2019-03-13T21:25:22.072Z,3.20
2019-03-13T21:27:50.475Z,3.20
2019-03-13T21:30:27.938Z,3.20
2019-03-13T21:32:56.984Z,3.20
2019-03-13T21:35:25.331Z,3.30
2019-03-13T21:37:54.144Z,3.30
2019-03-13T21:40:24.974Z,3.30
2019-03-13T21:42:54.906Z,3.30
2019-03-13T21:45:23.718Z,3.40
2019-03-13T21:47:52.430Z,3.40
2019-03-13T21:50:20.753Z,3.40
2019-03-13T21:52:49.160Z,3.30
2019-03-13T21:55:18.486Z,3.30
2019-03-13T21:57:47.018Z,3.30
2019-03-13T22:00:23.843Z,3.30
2019-03-13T22:02:52.817Z,3.30
2019-03-13T22:05:26.360Z,3.30
2019-03-13T22:07:51.548Z,3.40
2019-03-13T22:10:20.375Z,3.40
2019-03-13T22:12:48.737Z,3.40
2019-03-13T22:15:21.256Z,3.40
2019-03-13T22:17:49.643Z,3.40
2019-03-13T22:20:19.182Z,3.30
2019-03-13T22:22:47.613Z,3.30
2019-03-13T22:25:17.863Z,3.30
2019-03-13T22:27:46.362Z,3.30
2019-03-13T22:30:17.602Z,3.30
2019-03-13T22:32:45.900Z,3.20
2019-03-13T22:35:14.295Z,3.30
2019-03-13T22:37:42.679Z,3.30
2019-03-13T22:40:14.922Z,3.30
2019-03-13T22:42:43.313Z,3.20
2019-03-13T22:45:16.205Z,3.10
2019-03-13T22:47:46.181Z,3.10
2019-03-13T22:50:24.873Z,3.10
2019-03-13T22:52:53.213Z,3.00
2019-03-13T22:55:21.619Z,2.90
2019-03-13T22:57:50.065Z,3.00
2019-03-13T23:00:29.455Z,3.00
2019-03-13T23:02:57.775Z,3.00
2019-03-13T23:05:26.106Z,3.00
2019-03-13T23:07:54.476Z,2.90
2019-03-13T23:10:35.457Z,3.00
2019-03-13T23:13:03.842Z,3.00
2019-03-13T23:15:33.087Z,3.00
2019-03-13T23:18:01.584Z,3.10
2019-03-13T23:20:29.947Z,3.10
2019-03-13T23:22:58.332Z,3.10
2019-03-13T23:25:26.715Z,3.10
2019-03-13T23:27:55.026Z,3.10
2019-03-13T23:30:23.410Z,3.10
2019-03-13T23:32:52.068Z,3.10
2019-03-13T23:35:20.362Z,3.10
2019-03-13T23:37:48.711Z,3.10
2019-03-13T23:40:17.102Z,3.10
2019-03-13T23:42:45.459Z,3.10
2019-03-13T23:45:13.849Z,3.10
2019-03-13T23:47:42.285Z,3.10
2019-03-13T23:50:12.965Z,3.10
2019-03-13T23:52:41.348Z,3.10
2019-03-13T23:55:09.814Z,3.00
2019-03-13T23:57:38.168Z,3.00
